Streetman, Texas
Current Conditions -  °F | °C
As of 2:53 PM on Wednesday 26 Nov 2014 (Local Time) from KCRS Reporting Station
Clear Clear  
Wind Chill: 68°   Ceiling: Unl
Heat Index: 68°   Visibility: 10mi
Dew Point: 27°   Wind: 9mph
Humidity: 21%   Direction: 320°NW
Pressure: 30.18"   Gusts: NA
Location:  31.88°N, 96.32°W
Report Text: KCRS 262053Z AUTO 32008KT 10SM CLR 20/M03 A3018 RMK AO2 SLP219 T02001028 53001
Loading
Personal Weather Stations






























Interactive Weather Map New forecast layout! Learn more

10-Day Weather Forecast

Advertisements
Track Severe Weather on mobile